createdAt,value
2023-04-16T00:01:02.672Z,14.85
2023-04-16T00:04:06.153Z,15.98
2023-04-16T00:07:09.376Z,14.88
2023-04-16T00:10:12.273Z,15.65
2023-04-16T00:13:15.275Z,14.93
2023-04-16T00:16:18.546Z,15.82
2023-04-16T00:19:22.457Z,17.35
2023-04-16T00:22:25.046Z,16.70
2023-04-16T00:25:27.823Z,17.20
2023-04-16T00:28:30.637Z,16.17
2023-04-16T00:31:34.484Z,16.85
2023-04-16T00:34:39.076Z,16.25
2023-04-16T00:37:41.765Z,16.17
2023-04-16T00:40:45.727Z,14.75
2023-04-16T00:43:48.205Z,15.65
2023-04-16T00:46:51.664Z,14.30
2023-04-16T00:49:54.657Z,14.85
2023-04-16T00:52:57.550Z,13.77
2023-04-16T00:56:02.518Z,13.82
2023-04-16T00:59:06.256Z,13.00
2023-04-16T01:02:09.107Z,12.02
2023-04-16T01:05:11.833Z,13.05
2023-04-16T01:08:22.097Z,11.85
2023-04-16T01:11:25.004Z,13.63
2023-04-16T01:14:27.983Z,13.57
2023-04-16T01:17:30.545Z,12.32
2023-04-16T01:20:36.379Z,12.82
2023-04-16T01:23:39.304Z,12.23
2023-04-16T01:26:42.060Z,12.50
2023-04-16T01:29:44.845Z,13.07
2023-04-16T01:32:48.257Z,14.10
2023-04-16T01:35:51.254Z,13.90
2023-04-16T01:38:54.058Z,12.25
2023-04-16T01:41:57.224Z,12.73
2023-04-16T01:44:59.825Z,12.75
2023-04-16T01:48:03.961Z,13.80
2023-04-16T01:51:06.862Z,11.40
2023-04-16T01:54:09.829Z,12.45
2023-04-16T01:57:12.456Z,12.32
2023-04-16T02:00:15.554Z,11.48
2023-04-16T02:03:24.932Z,11.38
2023-04-16T02:06:28.647Z,10.98
2023-04-16T02:09:35.497Z,10.73
2023-04-16T02:12:40.820Z,11.68
2023-04-16T02:15:47.970Z,10.73
2023-04-16T02:18:53.307Z,10.73
2023-04-16T02:21:58.495Z,10.40
2023-04-16T02:25:01.207Z,10.52
2023-04-16T02:28:03.821Z,10.90
2023-04-16T02:31:11.544Z,10.57
2023-04-16T02:34:19.243Z,11.20
2023-04-16T02:37:21.862Z,10.25
2023-04-16T02:40:24.663Z,10.68
2023-04-16T02:43:27.166Z,10.98
2023-04-16T02:46:31.724Z,9.63
2023-04-16T02:49:35.881Z,9.90
2023-04-16T02:52:38.504Z,10.55
2023-04-16T02:55:41.386Z,10.02
2023-04-16T02:58:43.907Z,10.20
2023-04-16T03:01:46.889Z,10.88
2023-04-16T03:04:50.038Z,10.45
2023-04-16T03:07:56.709Z,11.23
2023-04-16T03:11:01.675Z,10.77
2023-04-16T03:14:04.487Z,10.93
2023-04-16T03:17:07.224Z,11.73
2023-04-16T03:20:10.371Z,10.80
2023-04-16T03:23:14.176Z,11.77
2023-04-16T03:26:16.905Z,11.50
2023-04-16T03:29:19.595Z,10.95
2023-04-16T03:32:23.596Z,11.40
2023-04-16T03:35:26.247Z,12.82
2023-04-16T03:38:28.858Z,11.10
2023-04-16T03:41:33.653Z,11.45
2023-04-16T03:44:36.682Z,10.55
2023-04-16T03:47:39.301Z,10.40
2023-04-16T03:50:46.238Z,10.27
2023-04-16T03:53:51.105Z,11.23
2023-04-16T03:56:54.548Z,11.02
2023-04-16T03:59:57.094Z,11.30
2023-04-16T04:03:02.664Z,10.30
2023-04-16T04:06:09.429Z,10.68
2023-04-16T04:09:13.043Z,10.60
2023-04-16T04:12:16.008Z,11.50
2023-04-16T04:15:19.750Z,10.57
2023-04-16T04:18:23.093Z,11.45
2023-04-16T04:21:26.010Z,10.45
2023-04-16T04:24:28.797Z,20.20
2023-04-16T04:27:31.758Z,12.50
2023-04-16T04:30:35.916Z,11.27
2023-04-16T04:33:38.533Z,10.70
2023-04-16T04:36:42.256Z,11.23
2023-04-16T04:39:45.310Z,10.38
2023-04-16T04:42:49.295Z,10.57
2023-04-16T04:45:52.094Z,10.80
2023-04-16T04:48:54.959Z,10.25
2023-04-16T04:51:57.752Z,10.23
2023-04-16T04:55:00.774Z,10.23
2023-04-16T04:58:06.455Z,10.85
2023-04-16T05:01:09.397Z,9.80
2023-04-16T05:04:13.116Z,9.75
2023-04-16T05:07:16.354Z,10.30
2023-04-16T05:10:19.360Z,10.85
2023-04-16T05:13:22.193Z,9.27
2023-04-16T05:16:24.826Z,10.65
2023-04-16T05:19:27.685Z,10.00
2023-04-16T05:22:30.221Z,10.52
2023-04-16T05:25:32.891Z,9.57
2023-04-16T05:28:35.677Z,9.95
2023-04-16T05:31:39.634Z,9.38
2023-04-16T05:34:42.197Z,9.80
2023-04-16T05:37:44.673Z,8.82
2023-04-16T05:40:47.396Z,8.35
2023-04-16T05:43:50.067Z,8.75
2023-04-16T05:46:52.919Z,9.32
2023-04-16T05:49:55.810Z,8.80
2023-04-16T05:52:58.561Z,8.80
2023-04-16T05:56:01.097Z,9.23
2023-04-16T05:59:04.599Z,8.70
2023-04-16T06:02:07.559Z,8.80
2023-04-16T06:05:10.152Z,7.43
2023-04-16T06:08:12.873Z,7.68
2023-04-16T06:11:15.510Z,7.63
2023-04-16T06:14:18.203Z,7.40
2023-04-16T06:17:21.395Z,7.32
2023-04-16T06:20:24.470Z,7.75
2023-04-16T06:23:27.070Z,7.70
2023-04-16T06:26:29.728Z,7.60
2023-04-16T06:29:40.642Z,7.82
2023-04-16T06:32:44.757Z,7.80
2023-04-16T06:35:47.423Z,8.27
2023-04-16T06:38:50.086Z,8.82
2023-04-16T06:41:52.882Z,8.90
2023-04-16T06:44:55.526Z,9.65
2023-04-16T06:48:04.334Z,8.93
2023-04-16T06:51:07.423Z,8.05
2023-04-16T06:54:10.510Z,7.88
2023-04-16T06:57:13.022Z,7.72
2023-04-16T07:00:15.949Z,8.50
2023-04-16T07:03:18.643Z,7.75
2023-04-16T07:06:21.399Z,8.07
2023-04-16T07:09:24.026Z,7.22
2023-04-16T07:12:27.287Z,7.40
2023-04-16T07:15:30.079Z,6.53
2023-04-16T07:18:33.101Z,7.53
2023-04-16T07:21:36.458Z,7.07
2023-04-16T07:24:39.525Z,7.18
2023-04-16T07:27:44.465Z,6.75
2023-04-16T07:33:50.524Z,6.95
2023-04-16T07:36:53.146Z,7.28
2023-04-16T07:39:57.770Z,6.60
2023-04-16T07:43:00.539Z,6.43
2023-04-16T07:46:04.272Z,6.32
2023-04-16T07:49:07.236Z,6.68
2023-04-16T07:52:09.906Z,6.63
2023-04-16T07:55:13.707Z,7.13
2023-04-16T07:58:16.322Z,6.45
2023-04-16T08:01:18.958Z,7.38
2023-04-16T08:04:25.734Z,6.25
2023-04-16T08:07:28.818Z,5.35
2023-04-16T08:10:31.593Z,5.78
2023-04-16T08:13:34.212Z,5.65
2023-04-16T08:16:37.037Z,5.38
2023-04-16T08:19:40.051Z,5.07
2023-04-16T08:22:43.208Z,5.30
2023-04-16T08:25:46.095Z,4.47
2023-04-16T08:28:49.648Z,5.03
2023-04-16T08:31:53.811Z,4.80
2023-04-16T08:34:57.309Z,4.93
2023-04-16T08:38:02.410Z,4.38
2023-04-16T08:41:09.550Z,4.57
2023-04-16T08:44:20.510Z,4.50
2023-04-16T08:47:25.689Z,4.50
2023-04-16T08:50:29.924Z,4.85
2023-04-16T08:53:54.651Z,4.55
2023-04-16T09:00:02.625Z,4.43
2023-04-16T09:03:06.928Z,5.15
2023-04-16T09:06:10.073Z,4.97
2023-04-16T09:09:14.004Z,4.70
2023-04-16T09:12:17.590Z,4.60
2023-04-16T09:15:22.162Z,4.68
2023-04-16T09:21:28.108Z,5.40
2023-04-16T09:24:31.411Z,4.45
2023-04-16T09:27:34.104Z,5.13
2023-04-16T09:30:37.643Z,4.68
2023-04-16T09:33:41.186Z,5.15
2023-04-16T09:36:43.798Z,4.70
2023-04-16T09:39:56.866Z,5.10
2023-04-16T09:43:00.893Z,5.03
2023-04-16T09:46:08.108Z,4.82
2023-04-16T09:49:15.592Z,5.10
2023-04-16T09:52:23.192Z,5.65
2023-04-16T09:55:27.808Z,5.07
2023-04-16T09:58:30.869Z,4.63
2023-04-16T10:01:34.046Z,4.43
2023-04-16T10:04:53.093Z,4.78
2023-04-16T10:08:00.600Z,4.32
2023-04-16T10:11:03.285Z,4.03
2023-04-16T10:14:06.332Z,4.40
2023-04-16T10:17:10.047Z,4.25
2023-04-16T10:20:14.226Z,4.53
2023-04-16T10:23:20.124Z,3.10
2023-04-16T10:26:22.881Z,3.88
2023-04-16T10:29:27.488Z,3.83
2023-04-16T10:32:32.041Z,3.70
2023-04-16T10:35:40.734Z,3.90
2023-04-16T10:38:48.358Z,3.90
2023-04-16T10:42:06.332Z,3.38
2023-04-16T10:45:11.274Z,3.78
2023-04-16T10:48:17.178Z,3.38
2023-04-16T10:51:36.658Z,2.75
2023-04-16T10:54:40.938Z,6.32
2023-04-16T10:57:43.902Z,3.70
2023-04-16T11:00:53.474Z,2.92
2023-04-16T11:03:56.561Z,4.68
2023-04-16T11:07:17.990Z,2.05
2023-04-16T11:10:20.734Z,2.10
2023-04-16T11:13:23.864Z,2.00
2023-04-16T11:16:26.732Z,2.22
2023-04-16T11:19:29.518Z,5.22
2023-04-16T11:22:36.712Z,5.30
2023-04-16T11:25:39.396Z,3.45
2023-04-16T11:28:41.962Z,1.88
2023-04-16T11:31:55.378Z,1.90
2023-04-16T11:34:59.942Z,1.77
2023-04-16T11:38:02.603Z,1.60
2023-04-16T11:41:05.218Z,1.95
2023-04-16T11:44:25.531Z,2.67
2023-04-16T11:47:30.843Z,2.00
2023-04-16T11:50:33.804Z,2.08
2023-04-16T11:53:37.082Z,2.22
2023-04-16T11:56:46.834Z,2.20
2023-04-16T12:00:01.361Z,2.17
2023-04-16T12:03:15.628Z,2.20
2023-04-16T12:06:18.488Z,6.93
2023-04-16T12:09:25.461Z,3.47
2023-04-16T12:12:31.456Z,2.55
2023-04-16T12:15:46.041Z,2.30
2023-04-16T12:19:01.283Z,2.30
2023-04-16T12:22:04.051Z,1.90
2023-04-16T12:25:17.753Z,2.20
2023-04-16T12:28:38.598Z,2.10
2023-04-16T12:31:41.601Z,2.35
2023-04-16T12:34:51.582Z,2.30
2023-04-16T12:37:54.047Z,3.78
2023-04-16T12:40:57.749Z,3.25
2023-04-16T12:44:05.185Z,2.55
2023-04-16T12:47:07.855Z,2.40
2023-04-16T12:50:10.966Z,2.47
2023-04-16T12:53:13.919Z,2.40
2023-04-16T12:56:16.860Z,2.28
2023-04-16T12:59:19.504Z,2.00
2023-04-16T13:02:23.025Z,2.10
2023-04-16T13:05:25.835Z,2.13
2023-04-16T13:08:29.210Z,2.13
2023-04-16T13:11:32.481Z,2.50
2023-04-16T13:14:35.318Z,2.03
2023-04-16T13:17:38.270Z,2.78
2023-04-16T13:20:41.325Z,3.80
2023-04-16T13:23:44.108Z,8.68
2023-04-16T13:26:46.860Z,1.90
2023-04-16T13:29:50.000Z,1.90
2023-04-16T13:32:56.457Z,1.70
2023-04-16T13:35:59.170Z,2.03
2023-04-16T13:39:05.071Z,1.92
2023-04-16T13:42:09.205Z,1.80
2023-04-16T13:45:12.197Z,2.35
2023-04-16T13:48:15.184Z,2.40
2023-04-16T13:51:17.968Z,1.75
2023-04-16T13:54:20.593Z,1.60
2023-04-16T13:57:23.509Z,2.00
2023-04-16T14:00:27.334Z,1.70
2023-04-16T14:03:29.975Z,2.08
2023-04-16T14:06:33.801Z,2.08
2023-04-16T14:09:36.973Z,2.17
2023-04-16T14:12:40.159Z,2.10
2023-04-16T14:15:43.519Z,6.03
2023-04-16T14:18:47.777Z,2.25
2023-04-16T14:24:55.602Z,2.97
2023-04-16T14:28:01.626Z,2.22
2023-04-16T14:31:04.993Z,2.28
2023-04-16T14:34:07.756Z,2.65
2023-04-16T14:37:10.365Z,2.45
2023-04-16T14:40:13.300Z,2.30
2023-04-16T14:43:16.115Z,2.60
2023-04-16T14:46:19.437Z,2.72
2023-04-16T14:49:22.959Z,3.00
2023-04-16T14:52:26.218Z,2.50
2023-04-16T14:55:28.769Z,2.35
2023-04-16T14:58:31.637Z,2.20
2023-04-16T15:01:36.028Z,2.00
2023-04-16T15:07:41.936Z,2.30
2023-04-16T15:10:47.256Z,2.13
2023-04-16T15:13:50.778Z,1.90
2023-04-16T15:16:54.144Z,4.53
2023-04-16T15:19:56.901Z,5.05
2023-04-16T15:22:59.726Z,2.83
2023-04-16T15:26:02.416Z,3.30
2023-04-16T15:29:05.489Z,11.77
2023-04-16T15:32:08.752Z,2.58
2023-04-16T15:35:13.958Z,2.38
2023-04-16T15:38:16.988Z,2.20
2023-04-16T15:41:19.795Z,3.10
2023-04-16T15:44:24.531Z,3.00
2023-04-16T15:47:28.094Z,3.30
2023-04-16T15:50:32.716Z,2.20
2023-04-16T15:53:36.286Z,1.85
2023-04-16T15:56:40.023Z,1.92
2023-04-16T15:59:46.196Z,1.85
2023-04-16T16:02:58.142Z,1.85
2023-04-16T16:06:04.167Z,1.90
2023-04-16T16:09:08.520Z,2.20
2023-04-16T16:12:11.341Z,1.92
2023-04-16T16:15:15.745Z,1.98
2023-04-16T16:18:19.294Z,1.95
2023-04-16T16:21:22.591Z,2.13
2023-04-16T16:24:26.559Z,1.90
2023-04-16T16:27:30.004Z,2.17
2023-04-16T16:30:33.140Z,2.50
2023-04-16T16:33:38.428Z,2.53
2023-04-16T16:36:42.837Z,2.30
2023-04-16T16:39:46.118Z,2.30
2023-04-16T16:42:49.931Z,2.15
2023-04-16T16:45:53.278Z,2.08
2023-04-16T16:48:57.105Z,2.05
2023-04-16T16:52:00.517Z,2.40
2023-04-16T16:55:05.981Z,2.10
2023-04-16T16:58:10.305Z,2.30
2023-04-16T17:01:13.657Z,3.80
2023-04-16T17:04:20.012Z,2.42
2023-04-16T17:07:25.434Z,2.17
2023-04-16T17:10:30.281Z,2.60
2023-04-16T17:13:35.124Z,2.30
2023-04-16T17:16:39.619Z,3.15
2023-04-16T17:22:46.548Z,3.10
2023-04-16T17:25:49.829Z,3.83
2023-04-16T17:28:54.681Z,3.25
2023-04-16T17:31:58.551Z,3.08
2023-04-16T17:35:04.614Z,3.15
2023-04-16T17:38:08.214Z,2.85
2023-04-16T17:41:12.119Z,2.97
2023-04-16T17:44:16.360Z,2.58
2023-04-16T17:50:24.046Z,3.20
2023-04-16T17:53:27.518Z,2.60
2023-04-16T17:56:36.167Z,3.00
2023-04-16T17:59:39.466Z,2.30
2023-04-16T18:05:50.319Z,2.85
2023-04-16T18:08:54.032Z,3.13
2023-04-16T18:11:57.576Z,3.92
2023-04-16T18:15:01.420Z,3.35
2023-04-16T18:18:06.643Z,3.42
2023-04-16T18:21:10.533Z,3.47
2023-04-16T18:24:14.297Z,3.30
2023-04-16T18:27:18.067Z,3.35
2023-04-16T18:30:26.371Z,3.78
2023-04-16T18:36:37.252Z,3.60
2023-04-16T18:39:40.086Z,4.20
2023-04-16T18:42:43.534Z,3.33
2023-04-16T18:45:46.812Z,3.20
2023-04-16T18:48:49.881Z,3.38
2023-04-16T18:51:56.584Z,3.42
2023-04-16T18:54:59.849Z,3.85
2023-04-16T18:58:04.047Z,3.60
2023-04-16T19:01:11.391Z,3.30
2023-04-16T19:04:18.505Z,3.25
2023-04-16T19:07:22.388Z,3.63
2023-04-16T19:10:26.295Z,3.08
2023-04-16T19:13:33.103Z,4.05
2023-04-16T19:16:36.554Z,3.47
2023-04-16T19:19:40.597Z,3.25
2023-04-16T19:22:44.339Z,2.85
2023-04-16T19:25:54.099Z,2.80
2023-04-16T19:28:57.908Z,3.67
2023-04-16T19:32:03.114Z,3.65
2023-04-16T19:35:08.398Z,3.78
2023-04-16T19:38:11.833Z,3.40
2023-04-16T19:41:15.434Z,2.88
2023-04-16T19:44:20.046Z,3.38
2023-04-16T19:50:27.212Z,3.35
2023-04-16T19:53:35.000Z,3.40
2023-04-16T19:56:37.957Z,3.10
2023-04-16T19:59:42.832Z,3.47
2023-04-16T20:02:46.472Z,3.92
2023-04-16T20:05:50.241Z,3.72
2023-04-16T20:08:53.658Z,3.20
2023-04-16T20:11:58.316Z,3.42
2023-04-16T20:15:01.576Z,3.58
2023-04-16T20:18:06.501Z,2.90
2023-04-16T20:21:10.664Z,3.00
2023-04-16T20:24:15.991Z,2.90
2023-04-16T20:27:20.472Z,3.13
2023-04-16T20:30:28.791Z,3.35
2023-04-16T20:33:32.169Z,3.53
2023-04-16T20:36:36.265Z,3.33
2023-04-16T20:39:40.241Z,3.00
2023-04-16T20:42:46.311Z,2.80
2023-04-16T20:45:50.153Z,3.20
2023-04-16T20:48:53.258Z,2.70
2023-04-16T20:51:56.321Z,3.88
2023-04-16T20:54:59.021Z,3.08
2023-04-16T20:58:02.046Z,2.90
2023-04-16T21:01:06.139Z,2.88
2023-04-16T21:04:09.014Z,4.15
2023-04-16T21:07:11.789Z,3.47
2023-04-16T21:10:20.252Z,3.17
2023-04-16T21:13:23.164Z,4.15
2023-04-16T21:16:26.847Z,3.08
2023-04-16T21:19:29.633Z,2.83
2023-04-16T21:22:32.751Z,2.88
2023-04-16T21:25:35.534Z,2.70
2023-04-16T21:28:38.341Z,2.80
2023-04-16T21:31:42.900Z,2.70
2023-04-16T21:34:45.739Z,2.75
2023-04-16T21:37:48.875Z,2.63
2023-04-16T21:40:54.109Z,2.72
2023-04-16T21:43:56.671Z,3.40
2023-04-16T21:47:00.666Z,3.25
2023-04-16T21:50:03.764Z,2.90
2023-04-16T21:53:06.738Z,2.85
2023-04-16T21:56:09.540Z,2.85
2023-04-16T21:59:12.344Z,2.47
2023-04-16T22:02:15.217Z,3.22
2023-04-16T22:05:18.082Z,2.55
2023-04-16T22:08:24.889Z,2.75
2023-04-16T22:11:27.872Z,2.78
2023-04-16T22:14:31.982Z,2.60
2023-04-16T22:17:34.914Z,2.60
2023-04-16T22:20:39.221Z,2.45
2023-04-16T22:23:42.081Z,2.55
2023-04-16T22:26:44.714Z,2.47
2023-04-16T22:29:47.416Z,2.70
2023-04-16T22:32:50.304Z,3.00
2023-04-16T22:35:53.741Z,2.60
2023-04-16T22:38:56.538Z,2.60
2023-04-16T22:41:59.649Z,2.83
2023-04-16T22:45:02.615Z,2.70
2023-04-16T22:48:05.669Z,2.50
2023-04-16T22:51:10.715Z,3.78
2023-04-16T22:54:14.693Z,2.45
2023-04-16T22:57:21.140Z,3.85
2023-04-16T23:00:25.096Z,2.78
2023-04-16T23:03:28.335Z,4.00
2023-04-16T23:06:31.644Z,3.05
2023-04-16T23:09:34.458Z,2.20
2023-04-16T23:12:40.254Z,2.40
2023-04-16T23:15:43.852Z,2.63
2023-04-16T23:18:46.773Z,2.60
2023-04-16T23:21:49.364Z,2.35
2023-04-16T23:24:52.052Z,2.40
2023-04-16T23:27:54.727Z,2.40
2023-04-16T23:30:57.546Z,2.63
2023-04-16T23:34:00.183Z,2.50
2023-04-16T23:37:02.895Z,2.83
2023-04-16T23:40:06.708Z,2.58
2023-04-16T23:43:09.383Z,2.47
2023-04-16T23:46:12.990Z,2.30
2023-04-16T23:49:15.655Z,2.30
2023-04-16T23:52:18.424Z,2.40
2023-04-16T23:55:21.126Z,2.40
2023-04-16T23:58:24.358Z,2.50
